sensor_id;sensor_type;location;lat;lon;timestamp;P1;durP1;ratioP1;P2;durP2;ratioP2
20731;SDS011;10527;52.124;5.196;2023-03-01T00:01:51;15.27;;;9.47;;
20731;SDS011;10527;52.124;5.196;2023-03-01T00:04:27;14.27;;;8.27;;
20731;SDS011;10527;52.124;5.196;2023-03-01T00:06:54;14.73;;;8.17;;
20731;SDS011;10527;52.124;5.196;2023-03-01T00:09:21;18.50;;;10.13;;
20731;SDS011;10527;52.124;5.196;2023-03-01T00:11:48;18.67;;;10.77;;
20731;SDS011;10527;52.124;5.196;2023-03-01T00:14:15;20.13;;;10.10;;
20731;SDS011;10527;52.124;5.196;2023-03-01T00:16:43;18.67;;;10.23;;
20731;SDS011;10527;52.124;5.196;2023-03-01T00:19:13;16.47;;;9.67;;
20731;SDS011;10527;52.124;5.196;2023-03-01T00:21:43;14.03;;;8.73;;
20731;SDS011;10527;52.124;5.196;2023-03-01T00:24:13;16.30;;;9.00;;
20731;SDS011;10527;52.124;5.196;2023-03-01T00:26:40;14.80;;;8.33;;
20731;SDS011;10527;52.124;5.196;2023-03-01T00:29:07;15.03;;;9.70;;
20731;SDS011;10527;52.124;5.196;2023-03-01T00:31:40;15.17;;;8.57;;
20731;SDS011;10527;52.124;5.196;2023-03-01T00:34:07;14.17;;;8.87;;
20731;SDS011;10527;52.124;5.196;2023-03-01T00:36:38;10.63;;;7.90;;
20731;SDS011;10527;52.124;5.196;2023-03-01T00:39:07;12.13;;;7.80;;
20731;SDS011;10527;52.124;5.196;2023-03-01T00:41:42;8.80;;;7.17;;
20731;SDS011;10527;52.124;5.196;2023-03-01T00:44:12;11.03;;;6.97;;
20731;SDS011;10527;52.124;5.196;2023-03-01T00:46:39;12.07;;;7.83;;
20731;SDS011;10527;52.124;5.196;2023-03-01T00:49:06;9.63;;;7.13;;
20731;SDS011;10527;52.124;5.196;2023-03-01T00:51:35;9.27;;;6.37;;
20731;SDS011;10527;52.124;5.196;2023-03-01T00:54:02;9.47;;;7.23;;
20731;SDS011;10527;52.124;5.196;2023-03-01T00:56:29;10.90;;;7.67;;
20731;SDS011;10527;52.124;5.196;2023-03-01T00:58:57;10.13;;;6.80;;
20731;SDS011;10527;52.124;5.196;2023-03-01T01:01:25;8.07;;;6.53;;
20731;SDS011;10527;52.124;5.196;2023-03-01T01:04:00;9.40;;;7.10;;
20731;SDS011;10527;52.124;5.196;2023-03-01T01:06:32;8.50;;;7.00;;
20731;SDS011;10527;52.124;5.196;2023-03-01T01:09:06;8.87;;;6.90;;
20731;SDS011;10527;52.124;5.196;2023-03-01T01:11:33;9.90;;;6.73;;
20731;SDS011;10527;52.124;5.196;2023-03-01T01:14:05;9.17;;;6.77;;
20731;SDS011;10527;52.124;5.196;2023-03-01T01:16:35;9.00;;;6.57;;
20731;SDS011;10527;52.124;5.196;2023-03-01T01:19:05;9.47;;;6.63;;
20731;SDS011;10527;52.124;5.196;2023-03-01T01:21:32;9.53;;;6.90;;
20731;SDS011;10527;52.124;5.196;2023-03-01T01:23:59;7.90;;;6.07;;
20731;SDS011;10527;52.124;5.196;2023-03-01T01:26:32;9.57;;;7.47;;
20731;SDS011;10527;52.124;5.196;2023-03-01T01:29:01;8.83;;;7.07;;
20731;SDS011;10527;52.124;5.196;2023-03-01T01:31:30;10.23;;;6.60;;
20731;SDS011;10527;52.124;5.196;2023-03-01T01:34:04;9.20;;;7.17;;
20731;SDS011;10527;52.124;5.196;2023-03-01T01:36:34;7.90;;;6.63;;
20731;SDS011;10527;52.124;5.196;2023-03-01T01:39:01;8.43;;;6.27;;
20731;SDS011;10527;52.124;5.196;2023-03-01T01:41:28;8.43;;;6.40;;
20731;SDS011;10527;52.124;5.196;2023-03-01T01:44:11;8.33;;;6.50;;
20731;SDS011;10527;52.124;5.196;2023-03-01T01:46:39;8.73;;;6.70;;
20731;SDS011;10527;52.124;5.196;2023-03-01T01:52:20;9.83;;;6.77;;
20731;SDS011;10527;52.124;5.196;2023-03-01T01:57:30;8.30;;;6.63;;
20731;SDS011;10527;52.124;5.196;2023-03-01T02:00:04;8.90;;;6.63;;
20731;SDS011;10527;52.124;5.196;2023-03-01T02:02:36;8.73;;;6.10;;
20731;SDS011;10527;52.124;5.196;2023-03-01T02:05:17;8.77;;;6.73;;
20731;SDS011;10527;52.124;5.196;2023-03-01T02:07:57;8.30;;;6.50;;
20731;SDS011;10527;52.124;5.196;2023-03-01T02:10:25;10.10;;;6.57;;
20731;SDS011;10527;52.124;5.196;2023-03-01T02:12:54;8.33;;;7.13;;
20731;SDS011;10527;52.124;5.196;2023-03-01T02:15:24;10.50;;;7.10;;
20731;SDS011;10527;52.124;5.196;2023-03-01T02:17:52;9.03;;;7.23;;
20731;SDS011;10527;52.124;5.196;2023-03-01T02:23:43;8.00;;;6.87;;
20731;SDS011;10527;52.124;5.196;2023-03-01T02:26:29;8.77;;;6.83;;
20731;SDS011;10527;52.124;5.196;2023-03-01T02:29:11;10.87;;;7.17;;
20731;SDS011;10527;52.124;5.196;2023-03-01T02:31:44;8.87;;;6.10;;
20731;SDS011;10527;52.124;5.196;2023-03-01T02:34:21;8.73;;;7.10;;
20731;SDS011;10527;52.124;5.196;2023-03-01T02:39:32;8.67;;;6.87;;
20731;SDS011;10527;52.124;5.196;2023-03-01T02:42:12;10.90;;;7.33;;
20731;SDS011;10527;52.124;5.196;2023-03-01T02:44:44;8.93;;;6.77;;
20731;SDS011;10527;52.124;5.196;2023-03-01T02:47:11;9.93;;;6.93;;
20731;SDS011;10527;52.124;5.196;2023-03-01T02:49:38;10.00;;;7.20;;
20731;SDS011;10527;52.124;5.196;2023-03-01T02:55:08;7.60;;;6.40;;
20731;SDS011;10527;52.124;5.196;2023-03-01T02:57:40;8.23;;;6.80;;
20731;SDS011;10527;52.124;5.196;2023-03-01T03:00:11;9.47;;;7.13;;
20731;SDS011;10527;52.124;5.196;2023-03-01T03:02:54;8.37;;;7.00;;
20731;SDS011;10527;52.124;5.196;2023-03-01T03:05:24;8.57;;;7.37;;
20731;SDS011;10527;52.124;5.196;2023-03-01T03:07:59;7.60;;;6.73;;
20731;SDS011;10527;52.124;5.196;2023-03-01T03:10:30;8.87;;;6.67;;
20731;SDS011;10527;52.124;5.196;2023-03-01T03:13:03;7.67;;;6.87;;
20731;SDS011;10527;52.124;5.196;2023-03-01T03:15:36;9.70;;;6.80;;
20731;SDS011;10527;52.124;5.196;2023-03-01T03:18:06;10.23;;;7.17;;
20731;SDS011;10527;52.124;5.196;2023-03-01T03:20:39;8.00;;;7.00;;
20731;SDS011;10527;52.124;5.196;2023-03-01T03:23:08;9.53;;;7.93;;
20731;SDS011;10527;52.124;5.196;2023-03-01T03:25:35;9.20;;;7.17;;
20731;SDS011;10527;52.124;5.196;2023-03-01T03:28:04;14.17;;;8.00;;
20731;SDS011;10527;52.124;5.196;2023-03-01T03:30:39;9.57;;;7.77;;
20731;SDS011;10527;52.124;5.196;2023-03-01T03:33:08;9.80;;;7.83;;
20731;SDS011;10527;52.124;5.196;2023-03-01T03:35:43;8.93;;;7.27;;
20731;SDS011;10527;52.124;5.196;2023-03-01T03:38:14;8.57;;;7.07;;
20731;SDS011;10527;52.124;5.196;2023-03-01T03:40:48;8.80;;;7.20;;
20731;SDS011;10527;52.124;5.196;2023-03-01T03:43:37;8.53;;;7.23;;
20731;SDS011;10527;52.124;5.196;2023-03-01T03:46:10;9.03;;;6.90;;
20731;SDS011;10527;52.124;5.196;2023-03-01T03:48:39;8.67;;;7.37;;
20731;SDS011;10527;52.124;5.196;2023-03-01T03:51:13;9.93;;;7.43;;
20731;SDS011;10527;52.124;5.196;2023-03-01T03:53:45;7.40;;;6.60;;
20731;SDS011;10527;52.124;5.196;2023-03-01T03:56:12;9.53;;;7.43;;
20731;SDS011;10527;52.124;5.196;2023-03-01T03:58:39;9.37;;;7.63;;
20731;SDS011;10527;52.124;5.196;2023-03-01T04:01:12;10.20;;;7.70;;
20731;SDS011;10527;52.124;5.196;2023-03-01T04:03:45;7.87;;;7.07;;
20731;SDS011;10527;52.124;5.196;2023-03-01T04:06:14;8.87;;;7.23;;
20731;SDS011;10527;52.124;5.196;2023-03-01T04:08:44;9.47;;;7.80;;
20731;SDS011;10527;52.124;5.196;2023-03-01T04:11:11;10.37;;;7.07;;
20731;SDS011;10527;52.124;5.196;2023-03-01T04:14:08;9.77;;;7.93;;
20731;SDS011;10527;52.124;5.196;2023-03-01T04:16:36;8.47;;;6.90;;
20731;SDS011;10527;52.124;5.196;2023-03-01T04:19:02;11.07;;;7.87;;
20731;SDS011;10527;52.124;5.196;2023-03-01T04:21:32;9.67;;;7.80;;
20731;SDS011;10527;52.124;5.196;2023-03-01T04:24:02;10.33;;;7.80;;
20731;SDS011;10527;52.124;5.196;2023-03-01T04:26:31;7.77;;;6.90;;
20731;SDS011;10527;52.124;5.196;2023-03-01T04:28:58;9.77;;;7.57;;
20731;SDS011;10527;52.124;5.196;2023-03-01T04:31:25;10.03;;;7.40;;
20731;SDS011;10527;52.124;5.196;2023-03-01T04:33:53;10.77;;;7.73;;
20731;SDS011;10527;52.124;5.196;2023-03-01T04:36:25;9.77;;;7.83;;
20731;SDS011;10527;52.124;5.196;2023-03-01T04:38:56;11.80;;;8.43;;
20731;SDS011;10527;52.124;5.196;2023-03-01T04:41:26;9.17;;;7.97;;
20731;SDS011;10527;52.124;5.196;2023-03-01T04:43:53;10.67;;;7.77;;
20731;SDS011;10527;52.124;5.196;2023-03-01T04:46:20;9.50;;;7.47;;
20731;SDS011;10527;52.124;5.196;2023-03-01T04:48:54;10.43;;;7.33;;
20731;SDS011;10527;52.124;5.196;2023-03-01T04:51:21;12.40;;;8.13;;
20731;SDS011;10527;52.124;5.196;2023-03-01T04:53:48;11.10;;;8.70;;
20731;SDS011;10527;52.124;5.196;2023-03-01T04:56:18;11.90;;;8.80;;
20731;SDS011;10527;52.124;5.196;2023-03-01T04:58:45;11.23;;;8.17;;
20731;SDS011;10527;52.124;5.196;2023-03-01T05:01:20;11.53;;;8.53;;
20731;SDS011;10527;52.124;5.196;2023-03-01T05:03:51;10.60;;;8.33;;
20731;SDS011;10527;52.124;5.196;2023-03-01T05:06:24;10.67;;;8.67;;
20731;SDS011;10527;52.124;5.196;2023-03-01T05:08:51;12.30;;;8.40;;
20731;SDS011;10527;52.124;5.196;2023-03-01T05:11:21;11.17;;;8.40;;
20731;SDS011;10527;52.124;5.196;2023-03-01T05:13:48;10.87;;;8.60;;
20731;SDS011;10527;52.124;5.196;2023-03-01T05:16:20;9.93;;;7.87;;
20731;SDS011;10527;52.124;5.196;2023-03-01T05:18:47;11.77;;;8.73;;
20731;SDS011;10527;52.124;5.196;2023-03-01T05:21:18;10.70;;;8.53;;
20731;SDS011;10527;52.124;5.196;2023-03-01T05:23:45;13.17;;;8.87;;
20731;SDS011;10527;52.124;5.196;2023-03-01T05:26:13;11.07;;;7.73;;
20731;SDS011;10527;52.124;5.196;2023-03-01T05:28:59;10.83;;;8.30;;
20731;SDS011;10527;52.124;5.196;2023-03-01T05:31:27;10.73;;;7.83;;
20731;SDS011;10527;52.124;5.196;2023-03-01T05:33:54;12.53;;;9.53;;
20731;SDS011;10527;52.124;5.196;2023-03-01T05:36:21;12.00;;;8.60;;
20731;SDS011;10527;52.124;5.196;2023-03-01T05:38:48;11.97;;;8.20;;
20731;SDS011;10527;52.124;5.196;2023-03-01T05:41:17;11.27;;;8.37;;
20731;SDS011;10527;52.124;5.196;2023-03-01T05:43:44;12.37;;;8.53;;
20731;SDS011;10527;52.124;5.196;2023-03-01T05:46:14;9.57;;;8.33;;
20731;SDS011;10527;52.124;5.196;2023-03-01T05:48:41;11.00;;;7.77;;
20731;SDS011;10527;52.124;5.196;2023-03-01T05:51:08;11.60;;;8.30;;
20731;SDS011;10527;52.124;5.196;2023-03-01T05:53:34;13.30;;;8.47;;
20731;SDS011;10527;52.124;5.196;2023-03-01T05:56:05;9.57;;;8.07;;
20731;SDS011;10527;52.124;5.196;2023-03-01T05:58:32;10.73;;;8.40;;
20731;SDS011;10527;52.124;5.196;2023-03-01T06:00:58;13.23;;;8.73;;
20731;SDS011;10527;52.124;5.196;2023-03-01T06:03:25;12.40;;;8.70;;
20731;SDS011;10527;52.124;5.196;2023-03-01T06:05:59;11.53;;;8.43;;
20731;SDS011;10527;52.124;5.196;2023-03-01T06:08:29;10.90;;;7.97;;
20731;SDS011;10527;52.124;5.196;2023-03-01T06:10:56;10.43;;;8.37;;
20731;SDS011;10527;52.124;5.196;2023-03-01T06:13:23;11.23;;;8.97;;
20731;SDS011;10527;52.124;5.196;2023-03-01T06:15:50;10.97;;;7.83;;
20731;SDS011;10527;52.124;5.196;2023-03-01T06:18:18;9.43;;;8.07;;
20731;SDS011;10527;52.124;5.196;2023-03-01T06:20:54;10.23;;;8.00;;
20731;SDS011;10527;52.124;5.196;2023-03-01T06:23:22;14.70;;;8.53;;
20731;SDS011;10527;52.124;5.196;2023-03-01T06:25:50;9.43;;;8.27;;
20731;SDS011;10527;52.124;5.196;2023-03-01T06:28:17;11.13;;;8.63;;
20731;SDS011;10527;52.124;5.196;2023-03-01T06:30:46;9.60;;;8.40;;
20731;SDS011;10527;52.124;5.196;2023-03-01T06:33:20;11.63;;;8.40;;
20731;SDS011;10527;52.124;5.196;2023-03-01T06:35:49;11.83;;;9.13;;
20731;SDS011;10527;52.124;5.196;2023-03-01T06:38:20;13.93;;;9.70;;
20731;SDS011;10527;52.124;5.196;2023-03-01T06:40:51;11.63;;;9.13;;
20731;SDS011;10527;52.124;5.196;2023-03-01T06:43:21;10.50;;;8.17;;
20731;SDS011;10527;52.124;5.196;2023-03-01T06:45:49;11.63;;;9.30;;
20731;SDS011;10527;52.124;5.196;2023-03-01T06:48:16;14.43;;;9.77;;
20731;SDS011;10527;52.124;5.196;2023-03-01T06:50:43;22.07;;;9.33;;
20731;SDS011;10527;52.124;5.196;2023-03-01T06:53:10;13.33;;;9.33;;
20731;SDS011;10527;52.124;5.196;2023-03-01T06:55:40;13.07;;;10.37;;
20731;SDS011;10527;52.124;5.196;2023-03-01T06:58:08;10.97;;;9.73;;
20731;SDS011;10527;52.124;5.196;2023-03-01T07:00:36;11.40;;;8.80;;
20731;SDS011;10527;52.124;5.196;2023-03-01T07:03:05;13.57;;;9.33;;
20731;SDS011;10527;52.124;5.196;2023-03-01T07:05:34;13.70;;;9.50;;
20731;SDS011;10527;52.124;5.196;2023-03-01T07:08:01;11.33;;;9.27;;
20731;SDS011;10527;52.124;5.196;2023-03-01T07:10:28;12.00;;;9.60;;
20731;SDS011;10527;52.124;5.196;2023-03-01T07:12:56;10.53;;;8.90;;
20731;SDS011;10527;52.124;5.196;2023-03-01T07:15:26;12.57;;;8.97;;
20731;SDS011;10527;52.124;5.196;2023-03-01T07:17:54;14.30;;;10.13;;
20731;SDS011;10527;52.124;5.196;2023-03-01T07:20:22;13.57;;;9.67;;
20731;SDS011;10527;52.124;5.196;2023-03-01T07:22:51;14.50;;;10.67;;
20731;SDS011;10527;52.124;5.196;2023-03-01T07:25:20;13.37;;;9.50;;
20731;SDS011;10527;52.124;5.196;2023-03-01T07:27:50;12.97;;;9.67;;
20731;SDS011;10527;52.124;5.196;2023-03-01T07:30:19;18.07;;;11.03;;
20731;SDS011;10527;52.124;5.196;2023-03-01T07:32:47;15.00;;;10.60;;
20731;SDS011;10527;52.124;5.196;2023-03-01T07:35:14;13.87;;;10.27;;
20731;SDS011;10527;52.124;5.196;2023-03-01T07:37:42;15.60;;;10.33;;
20731;SDS011;10527;52.124;5.196;2023-03-01T07:40:10;19.17;;;11.43;;
20731;SDS011;10527;52.124;5.196;2023-03-01T07:42:37;13.33;;;9.93;;
20731;SDS011;10527;52.124;5.196;2023-03-01T07:45:05;13.33;;;10.10;;
20731;SDS011;10527;52.124;5.196;2023-03-01T07:47:33;16.60;;;11.00;;
20731;SDS011;10527;52.124;5.196;2023-03-01T07:50:03;13.73;;;10.33;;
20731;SDS011;10527;52.124;5.196;2023-03-01T07:52:33;15.30;;;11.57;;
20731;SDS011;10527;52.124;5.196;2023-03-01T07:55:00;16.10;;;11.77;;
20731;SDS011;10527;52.124;5.196;2023-03-01T07:57:30;17.27;;;11.20;;
20731;SDS011;10527;52.124;5.196;2023-03-01T07:59:57;18.70;;;12.77;;
20731;SDS011;10527;52.124;5.196;2023-03-01T08:02:27;17.43;;;12.03;;
20731;SDS011;10527;52.124;5.196;2023-03-01T08:04:54;17.10;;;11.90;;
20731;SDS011;10527;52.124;5.196;2023-03-01T08:07:21;18.67;;;12.67;;
20731;SDS011;10527;52.124;5.196;2023-03-01T08:09:47;17.53;;;12.80;;
20731;SDS011;10527;52.124;5.196;2023-03-01T08:12:14;20.10;;;13.10;;
20731;SDS011;10527;52.124;5.196;2023-03-01T08:14:42;17.00;;;12.90;;
20731;SDS011;10527;52.124;5.196;2023-03-01T08:17:09;17.60;;;12.00;;
20731;SDS011;10527;52.124;5.196;2023-03-01T08:19:40;16.03;;;11.73;;
20731;SDS011;10527;52.124;5.196;2023-03-01T08:22:08;17.80;;;11.63;;
20731;SDS011;10527;52.124;5.196;2023-03-01T08:24:38;17.03;;;11.63;;
20731;SDS011;10527;52.124;5.196;2023-03-01T08:27:05;17.73;;;11.23;;
20731;SDS011;10527;52.124;5.196;2023-03-01T08:29:32;16.67;;;10.83;;
20731;SDS011;10527;52.124;5.196;2023-03-01T08:32:00;14.57;;;10.87;;
20731;SDS011;10527;52.124;5.196;2023-03-01T08:34:27;17.97;;;10.63;;
20731;SDS011;10527;52.124;5.196;2023-03-01T08:36:54;20.43;;;10.90;;
20731;SDS011;10527;52.124;5.196;2023-03-01T08:39:21;17.60;;;10.73;;
20731;SDS011;10527;52.124;5.196;2023-03-01T08:41:48;11.37;;;8.03;;
20731;SDS011;10527;52.124;5.196;2023-03-01T08:44:15;11.27;;;8.47;;
20731;SDS011;10527;52.124;5.196;2023-03-01T08:46:47;10.63;;;7.23;;
20731;SDS011;10527;52.124;5.196;2023-03-01T08:49:17;13.90;;;7.73;;
20731;SDS011;10527;52.124;5.196;2023-03-01T08:51:47;10.77;;;7.40;;
20731;SDS011;10527;52.124;5.196;2023-03-01T08:54:16;8.50;;;6.80;;
20731;SDS011;10527;52.124;5.196;2023-03-01T08:56:46;10.90;;;6.93;;
20731;SDS011;10527;52.124;5.196;2023-03-01T08:59:14;8.43;;;6.43;;
20731;SDS011;10527;52.124;5.196;2023-03-01T09:01:43;10.97;;;7.20;;
20731;SDS011;10527;52.124;5.196;2023-03-01T09:04:11;10.40;;;7.00;;
20731;SDS011;10527;52.124;5.196;2023-03-01T09:06:40;9.47;;;7.53;;
20731;SDS011;10527;52.124;5.196;2023-03-01T09:09:12;9.97;;;7.53;;
20731;SDS011;10527;52.124;5.196;2023-03-01T09:11:43;9.87;;;7.10;;
20731;SDS011;10527;52.124;5.196;2023-03-01T09:14:16;8.13;;;6.20;;
20731;SDS011;10527;52.124;5.196;2023-03-01T09:16:42;7.77;;;6.10;;
20731;SDS011;10527;52.124;5.196;2023-03-01T09:19:09;6.30;;;5.40;;
20731;SDS011;10527;52.124;5.196;2023-03-01T09:21:37;7.07;;;5.93;;
20731;SDS011;10527;52.124;5.196;2023-03-01T09:24:08;8.27;;;6.13;;
20731;SDS011;10527;52.124;5.196;2023-03-01T09:26:40;6.45;;;5.35;;
20731;SDS011;10527;52.124;5.196;2023-03-01T09:29:07;6.47;;;5.57;;
20731;SDS011;10527;52.124;5.196;2023-03-01T09:31:35;6.68;;;5.60;;
20731;SDS011;10527;52.124;5.196;2023-03-01T09:34:02;6.25;;;5.10;;
20731;SDS011;10527;52.124;5.196;2023-03-01T09:36:33;6.13;;;4.88;;
20731;SDS011;10527;52.124;5.196;2023-03-01T09:39:01;6.50;;;5.10;;
20731;SDS011;10527;52.124;5.196;2023-03-01T09:41:42;6.80;;;4.40;;
20731;SDS011;10527;52.124;5.196;2023-03-01T09:44:20;7.72;;;5.35;;
20731;SDS011;10527;52.124;5.196;2023-03-01T09:47:02;6.28;;;4.97;;
20731;SDS011;10527;52.124;5.196;2023-03-01T09:49:30;7.40;;;4.60;;
20731;SDS011;10527;52.124;5.196;2023-03-01T09:54:42;6.85;;;5.45;;
20731;SDS011;10527;52.124;5.196;2023-03-01T10:02:56;5.07;;;3.70;;
20731;SDS011;10527;52.124;5.196;2023-03-01T10:05:41;4.25;;;3.00;;
20731;SDS011;10527;52.124;5.196;2023-03-01T10:10:57;5.68;;;3.78;;
20731;SDS011;10527;52.124;5.196;2023-03-01T10:13:37;4.25;;;3.05;;
20731;SDS011;10527;52.124;5.196;2023-03-01T10:19:32;3.90;;;2.78;;
20731;SDS011;10527;52.124;5.196;2023-03-01T10:22:12;5.18;;;3.45;;
20731;SDS011;10527;52.124;5.196;2023-03-01T10:24:56;5.97;;;3.60;;
20731;SDS011;10527;52.124;5.196;2023-03-01T10:27:35;4.88;;;3.63;;
20731;SDS011;10527;52.124;5.196;2023-03-01T10:30:35;5.03;;;3.38;;
20731;SDS011;10527;52.124;5.196;2023-03-01T10:33:13;6.18;;;3.13;;
20731;SDS011;10527;52.124;5.196;2023-03-01T10:35:47;5.43;;;3.72;;
20731;SDS011;10527;52.124;5.196;2023-03-01T10:38:16;6.70;;;4.03;;
20731;SDS011;10527;52.124;5.196;2023-03-01T10:43:31;5.00;;;3.90;;
20731;SDS011;10527;52.124;5.196;2023-03-01T10:46:33;8.20;;;4.57;;
20731;SDS011;10527;52.124;5.196;2023-03-01T10:49:16;6.20;;;3.60;;
20731;SDS011;10527;52.124;5.196;2023-03-01T10:51:52;6.50;;;3.83;;
20731;SDS011;10527;52.124;5.196;2023-03-01T10:56:59;6.60;;;4.60;;
20731;SDS011;10527;52.124;5.196;2023-03-01T10:59:33;6.07;;;3.60;;
20731;SDS011;10527;52.124;5.196;2023-03-01T11:04:56;4.63;;;3.40;;
20731;SDS011;10527;52.124;5.196;2023-03-01T11:08:00;5.13;;;3.63;;
20731;SDS011;10527;52.124;5.196;2023-03-01T11:10:33;5.90;;;3.40;;
20731;SDS011;10527;52.124;5.196;2023-03-01T11:13:06;5.80;;;3.80;;
20731;SDS011;10527;52.124;5.196;2023-03-01T11:15:43;5.57;;;3.57;;
20731;SDS011;10527;52.124;5.196;2023-03-01T11:18:30;5.37;;;3.43;;
20731;SDS011;10527;52.124;5.196;2023-03-01T11:21:12;5.70;;;3.77;;
20731;SDS011;10527;52.124;5.196;2023-03-01T11:23:41;7.63;;;4.00;;
20731;SDS011;10527;52.124;5.196;2023-03-01T11:26:15;7.40;;;3.80;;
20731;SDS011;10527;52.124;5.196;2023-03-01T11:28:46;5.10;;;3.73;;
20731;SDS011;10527;52.124;5.196;2023-03-01T11:31:20;6.77;;;3.33;;
20731;SDS011;10527;52.124;5.196;2023-03-01T11:34:09;6.07;;;3.73;;
20731;SDS011;10527;52.124;5.196;2023-03-01T11:36:54;7.30;;;3.87;;
20731;SDS011;10527;52.124;5.196;2023-03-01T11:45:15;4.17;;;2.53;;
20731;SDS011;10527;52.124;5.196;2023-03-01T11:47:46;4.30;;;2.67;;
20731;SDS011;10527;52.124;5.196;2023-03-01T11:57:35;4.47;;;3.00;;
20731;SDS011;10527;52.124;5.196;2023-03-01T12:03:27;6.60;;;3.17;;
20731;SDS011;10527;52.124;5.196;2023-03-01T12:09:42;9.00;;;3.50;;
20731;SDS011;10527;52.124;5.196;2023-03-01T12:15:37;3.77;;;1.90;;
20731;SDS011;10527;52.124;5.196;2023-03-01T12:32:38;5.20;;;2.10;;
20731;SDS011;10527;52.124;5.196;2023-03-01T12:50:41;4.47;;;2.50;;
20731;SDS011;10527;52.124;5.196;2023-03-01T12:53:22;3.47;;;2.03;;
20731;SDS011;10527;52.124;5.196;2023-03-01T12:55:59;3.37;;;2.20;;
20731;SDS011;10527;52.124;5.196;2023-03-01T12:58:33;5.33;;;2.00;;
20731;SDS011;10527;52.124;5.196;2023-03-01T13:04:39;3.77;;;2.60;;
20731;SDS011;10527;52.124;5.196;2023-03-01T13:10:15;3.67;;;2.27;;
20731;SDS011;10527;52.124;5.196;2023-03-01T13:20:21;3.97;;;2.67;;
20731;SDS011;10527;52.124;5.196;2023-03-01T13:23:12;3.37;;;2.20;;
20731;SDS011;10527;52.124;5.196;2023-03-01T13:31:10;4.40;;;2.40;;
20731;SDS011;10527;52.124;5.196;2023-03-01T13:33:58;3.63;;;2.37;;
20731;SDS011;10527;52.124;5.196;2023-03-01T13:41:49;3.23;;;2.23;;
20731;SDS011;10527;52.124;5.196;2023-03-01T13:44:21;4.33;;;2.40;;
20731;SDS011;10527;52.124;5.196;2023-03-01T13:49:59;4.67;;;2.50;;
20731;SDS011;10527;52.124;5.196;2023-03-01T13:55:47;3.23;;;2.30;;
20731;SDS011;10527;52.124;5.196;2023-03-01T13:58:23;4.43;;;2.53;;
20731;SDS011;10527;52.124;5.196;2023-03-01T14:00:58;2.67;;;2.00;;
20731;SDS011;10527;52.124;5.196;2023-03-01T14:03:30;2.50;;;2.00;;
20731;SDS011;10527;52.124;5.196;2023-03-01T14:06:12;3.60;;;2.07;;
20731;SDS011;10527;52.124;5.196;2023-03-01T14:08:47;3.23;;;2.00;;
20731;SDS011;10527;52.124;5.196;2023-03-01T14:14:16;3.07;;;2.30;;
20731;SDS011;10527;52.124;5.196;2023-03-01T14:20:27;2.80;;;2.10;;
20731;SDS011;10527;52.124;5.196;2023-03-01T14:22:59;3.43;;;2.30;;
20731;SDS011;10527;52.124;5.196;2023-03-01T14:25:37;2.93;;;2.20;;
20731;SDS011;10527;52.124;5.196;2023-03-01T14:34:21;3.00;;;2.60;;
20731;SDS011;10527;52.124;5.196;2023-03-01T14:36:53;3.90;;;2.72;;
20731;SDS011;10527;52.124;5.196;2023-03-01T14:39:23;4.77;;;2.50;;
20731;SDS011;10527;52.124;5.196;2023-03-01T14:41:52;3.50;;;2.10;;
20731;SDS011;10527;52.124;5.196;2023-03-01T14:44:20;2.80;;;1.93;;
20731;SDS011;10527;52.124;5.196;2023-03-01T14:46:56;3.73;;;2.50;;
20731;SDS011;10527;52.124;5.196;2023-03-01T14:49:24;3.23;;;2.50;;
20731;SDS011;10527;52.124;5.196;2023-03-01T14:52:06;2.57;;;2.13;;
20731;SDS011;10527;52.124;5.196;2023-03-01T14:54:48;4.22;;;2.40;;
20731;SDS011;10527;52.124;5.196;2023-03-01T14:57:20;3.83;;;2.10;;
20731;SDS011;10527;52.124;5.196;2023-03-01T14:59:53;2.47;;;1.90;;
20731;SDS011;10527;52.124;5.196;2023-03-01T15:02:24;2.83;;;2.33;;
20731;SDS011;10527;52.124;5.196;2023-03-01T15:04:57;4.68;;;3.00;;
20731;SDS011;10527;52.124;5.196;2023-03-01T15:07:29;3.25;;;2.47;;
20731;SDS011;10527;52.124;5.196;2023-03-01T15:10:04;3.40;;;2.03;;
20731;SDS011;10527;52.124;5.196;2023-03-01T15:12:41;4.60;;;2.75;;
20731;SDS011;10527;52.124;5.196;2023-03-01T15:15:19;5.63;;;2.60;;
20731;SDS011;10527;52.124;5.196;2023-03-01T15:18:03;5.93;;;3.08;;
20731;SDS011;10527;52.124;5.196;2023-03-01T15:20:41;5.45;;;3.28;;
20731;SDS011;10527;52.124;5.196;2023-03-01T15:23:16;4.80;;;2.50;;
20731;SDS011;10527;52.124;5.196;2023-03-01T15:25:50;3.13;;;2.42;;
20731;SDS011;10527;52.124;5.196;2023-03-01T15:28:31;4.05;;;2.40;;
20731;SDS011;10527;52.124;5.196;2023-03-01T15:31:13;4.50;;;2.95;;
20731;SDS011;10527;52.124;5.196;2023-03-01T15:34:06;4.43;;;2.70;;
20731;SDS011;10527;52.124;5.196;2023-03-01T15:36:52;3.00;;;2.37;;
20731;SDS011;10527;52.124;5.196;2023-03-01T15:41:59;3.78;;;2.17;;
20731;SDS011;10527;52.124;5.196;2023-03-01T15:47:21;4.07;;;2.58;;
20731;SDS011;10527;52.124;5.196;2023-03-01T15:49:55;4.43;;;2.57;;
20731;SDS011;10527;52.124;5.196;2023-03-01T15:52:35;4.25;;;2.72;;
20731;SDS011;10527;52.124;5.196;2023-03-01T15:55:15;3.70;;;2.40;;
20731;SDS011;10527;52.124;5.196;2023-03-01T15:57:48;3.33;;;2.37;;
20731;SDS011;10527;52.124;5.196;2023-03-01T16:00:16;6.40;;;2.60;;
20731;SDS011;10527;52.124;5.196;2023-03-01T16:02:47;4.03;;;2.43;;
20731;SDS011;10527;52.124;5.196;2023-03-01T16:05:22;5.00;;;2.30;;
20731;SDS011;10527;52.124;5.196;2023-03-01T16:07:52;3.33;;;2.10;;
20731;SDS011;10527;52.124;5.196;2023-03-01T16:10:23;3.93;;;2.37;;
20731;SDS011;10527;52.124;5.196;2023-03-01T16:12:53;5.47;;;3.10;;
20731;SDS011;10527;52.124;5.196;2023-03-01T16:15:28;3.87;;;2.63;;
20731;SDS011;10527;52.124;5.196;2023-03-01T16:18:04;4.43;;;2.73;;
20731;SDS011;10527;52.124;5.196;2023-03-01T16:20:35;4.30;;;2.97;;
20731;SDS011;10527;52.124;5.196;2023-03-01T16:23:03;5.23;;;2.97;;
20731;SDS011;10527;52.124;5.196;2023-03-01T16:25:33;4.90;;;2.70;;
20731;SDS011;10527;52.124;5.196;2023-03-01T16:28:01;4.70;;;2.90;;
20731;SDS011;10527;52.124;5.196;2023-03-01T16:30:37;4.77;;;2.57;;
20731;SDS011;10527;52.124;5.196;2023-03-01T16:33:05;3.63;;;2.57;;
20731;SDS011;10527;52.124;5.196;2023-03-01T16:35:50;3.47;;;2.43;;
20731;SDS011;10527;52.124;5.196;2023-03-01T16:38:17;4.20;;;2.40;;
20731;SDS011;10527;52.124;5.196;2023-03-01T16:40:48;3.50;;;2.60;;
20731;SDS011;10527;52.124;5.196;2023-03-01T16:43:17;4.53;;;2.63;;
20731;SDS011;10527;52.124;5.196;2023-03-01T16:45:44;4.17;;;2.70;;
20731;SDS011;10527;52.124;5.196;2023-03-01T16:48:12;4.57;;;2.60;;
20731;SDS011;10527;52.124;5.196;2023-03-01T16:50:39;5.40;;;2.70;;
20731;SDS011;10527;52.124;5.196;2023-03-01T16:53:06;3.63;;;2.77;;
20731;SDS011;10527;52.124;5.196;2023-03-01T16:55:33;4.53;;;3.07;;
20731;SDS011;10527;52.124;5.196;2023-03-01T16:58:03;4.33;;;2.90;;
20731;SDS011;10527;52.124;5.196;2023-03-01T17:00:30;6.10;;;3.20;;
20731;SDS011;10527;52.124;5.196;2023-03-01T17:02:57;6.60;;;3.60;;
20731;SDS011;10527;52.124;5.196;2023-03-01T17:05:24;7.40;;;3.77;;
20731;SDS011;10527;52.124;5.196;2023-03-01T17:07:51;5.13;;;3.50;;
20731;SDS011;10527;52.124;5.196;2023-03-01T17:10:24;6.20;;;3.90;;
20731;SDS011;10527;52.124;5.196;2023-03-01T17:12:51;7.40;;;4.00;;
20731;SDS011;10527;52.124;5.196;2023-03-01T17:15:18;5.57;;;3.73;;
20731;SDS011;10527;52.124;5.196;2023-03-01T17:17:48;7.03;;;4.23;;
20731;SDS011;10527;52.124;5.196;2023-03-01T17:20:17;5.33;;;3.87;;
20731;SDS011;10527;52.124;5.196;2023-03-01T17:22:44;7.83;;;4.83;;
20731;SDS011;10527;52.124;5.196;2023-03-01T17:25:11;5.37;;;3.73;;
20731;SDS011;10527;52.124;5.196;2023-03-01T17:27:38;7.17;;;4.40;;